createdAt,value
2023-01-21T00:00:23.051Z,15.20
2023-01-21T00:02:49.595Z,15.30
2023-01-21T00:05:16.239Z,15.20
2023-01-21T00:07:42.786Z,15.20
2023-01-21T00:10:09.782Z,15.30
2023-01-21T00:12:37.334Z,15.30
2023-01-21T00:15:04.159Z,15.30
2023-01-21T00:17:35.269Z,15.20
2023-01-21T00:20:02.654Z,15.30
2023-01-21T00:22:29.349Z,15.30
2023-01-21T00:24:55.932Z,15.30
2023-01-21T00:27:22.461Z,15.30
2023-01-21T00:29:49.041Z,15.20
2023-01-21T00:32:15.610Z,15.20
2023-01-21T00:34:42.267Z,15.20
2023-01-21T00:37:08.870Z,15.30
2023-01-21T00:39:35.426Z,15.20
2023-01-21T00:42:04.371Z,15.30
2023-01-21T00:44:30.965Z,15.30
2023-01-21T00:46:57.531Z,15.20
2023-01-21T00:49:24.105Z,15.30
2023-01-21T00:51:50.638Z,15.30
2023-01-21T00:54:17.217Z,15.40
2023-01-21T00:56:43.780Z,15.30
2023-01-21T00:59:10.448Z,15.20
2023-01-21T01:01:38.571Z,15.40
2023-01-21T01:04:06.139Z,15.40
2023-01-21T01:06:33.049Z,15.20
2023-01-21T01:08:59.670Z,15.30
2023-01-21T01:11:26.873Z,15.30
2023-01-21T01:13:54.688Z,15.40
2023-01-21T01:16:22.517Z,15.30
2023-01-21T01:18:55.968Z,15.30
2023-01-21T01:21:23.930Z,15.30
2023-01-21T01:24:02.576Z,15.30
2023-01-21T01:26:37.809Z,15.30
2023-01-21T01:29:16.530Z,15.30
2023-01-21T01:31:54.933Z,15.30
2023-01-21T01:34:31.096Z,15.10
2023-01-21T01:37:05.469Z,15.10
2023-01-21T01:39:33.582Z,15.30
2023-01-21T01:42:00.531Z,15.10
2023-01-21T01:44:49.293Z,15.20
2023-01-21T01:47:16.350Z,15.20
2023-01-21T01:49:43.999Z,15.00
2023-01-21T01:52:35.014Z,15.20
2023-01-21T01:55:06.874Z,15.10
2023-01-21T01:57:52.429Z,15.20
2023-01-21T02:00:28.823Z,15.20
2023-01-21T02:03:22.395Z,15.20
2023-01-21T02:05:49.960Z,15.20
2023-01-21T02:08:23.557Z,15.20
2023-01-21T02:11:08.117Z,15.20
2023-01-21T02:13:35.277Z,15.20
2023-01-21T02:16:56.463Z,15.20
2023-01-21T02:20:03.582Z,15.30
2023-01-21T02:22:45.168Z,15.20
2023-01-21T02:25:41.009Z,15.10
2023-01-21T02:28:08.343Z,15.00
2023-01-21T02:30:38.741Z,15.10
2023-01-21T02:33:10.054Z,15.10
2023-01-21T02:35:42.331Z,15.20
2023-01-21T02:38:28.184Z,15.20
2023-01-21T02:41:14.086Z,15.20
2023-01-21T02:44:18.160Z,15.20
2023-01-21T02:46:56.062Z,15.20
2023-01-21T02:49:30.438Z,15.30
2023-01-21T02:52:34.324Z,15.30
2023-01-21T02:55:31.175Z,15.40
2023-01-21T02:58:01.530Z,15.30
2023-01-21T03:00:33.862Z,15.30
2023-01-21T03:03:25.533Z,15.30
2023-01-21T03:05:52.656Z,15.40
2023-01-21T03:08:21.947Z,15.30
2023-01-21T03:11:53.977Z,15.40
2023-01-21T03:14:51.031Z,15.30
2023-01-21T03:17:41.881Z,15.50
2023-01-21T03:20:36.886Z,15.40
2023-01-21T03:23:13.047Z,15.30
2023-01-21T03:25:59.877Z,15.40
2023-01-21T03:28:29.576Z,15.30
2023-01-21T03:31:26.385Z,15.40
2023-01-21T03:33:56.540Z,15.30
2023-01-21T03:36:35.671Z,15.40
2023-01-21T03:39:06.099Z,15.40
2023-01-21T03:41:38.072Z,15.30
2023-01-21T03:44:05.639Z,15.30
2023-01-21T03:46:41.993Z,15.40
2023-01-21T03:49:23.482Z,15.50
2023-01-21T03:52:19.758Z,15.40
2023-01-21T03:54:47.990Z,15.30
2023-01-21T03:57:15.258Z,15.30
2023-01-21T03:59:45.671Z,15.30
2023-01-21T04:02:21.847Z,15.30
2023-01-21T04:04:50.531Z,15.30
2023-01-21T04:07:17.980Z,15.30
2023-01-21T04:09:45.438Z,15.30
2023-01-21T04:12:12.796Z,15.40
2023-01-21T04:14:40.155Z,15.40
2023-01-21T04:17:21.434Z,15.30
2023-01-21T04:20:03.646Z,15.30
2023-01-21T04:22:30.805Z,15.40
2023-01-21T04:24:57.995Z,15.30
2023-01-21T04:27:25.295Z,15.40
2023-01-21T04:30:01.055Z,15.40
2023-01-21T04:32:28.299Z,15.30
2023-01-21T04:34:56.187Z,15.30
2023-01-21T04:37:23.320Z,15.30
2023-01-21T04:39:50.780Z,15.30
2023-01-21T04:42:17.778Z,15.30
2023-01-21T04:44:56.877Z,15.20
2023-01-21T04:47:40.703Z,15.20
2023-01-21T04:50:12.352Z,15.30
2023-01-21T04:52:47.188Z,15.20
2023-01-21T04:55:17.934Z,15.10
2023-01-21T04:57:45.689Z,15.20
2023-01-21T05:00:13.828Z,15.20
2023-01-21T05:02:56.374Z,15.10
2023-01-21T05:05:29.063Z,15.20
2023-01-21T05:07:56.214Z,15.10
2023-01-21T05:10:23.389Z,15.10
2023-01-21T05:12:50.616Z,15.10
2023-01-21T05:15:17.889Z,15.10
2023-01-21T05:18:00.815Z,15.00
2023-01-21T05:20:46.676Z,15.20
2023-01-21T05:23:13.725Z,15.00
2023-01-21T05:25:41.150Z,15.00
2023-01-21T05:28:08.743Z,15.00
2023-01-21T05:30:40.438Z,15.00
2023-01-21T05:33:08.481Z,15.00
2023-01-21T05:35:42.361Z,14.90
2023-01-21T05:38:09.432Z,14.90
2023-01-21T05:40:36.379Z,14.90
2023-01-21T05:43:06.455Z,15.00
2023-01-21T05:45:55.392Z,14.90
2023-01-21T05:48:25.683Z,15.00
2023-01-21T05:50:58.075Z,14.90
2023-01-21T05:53:28.597Z,14.90
2023-01-21T05:55:56.367Z,14.90
2023-01-21T05:58:27.285Z,14.90
2023-01-21T06:01:01.557Z,15.10
2023-01-21T06:03:35.883Z,14.90
2023-01-21T06:06:07.100Z,14.90
2023-01-21T06:08:40.063Z,14.90
2023-01-21T06:11:07.114Z,14.90
2023-01-21T06:13:37.337Z,14.90
2023-01-21T06:16:05.018Z,14.90
2023-01-21T06:18:32.666Z,14.80
2023-01-21T06:21:02.687Z,14.90
2023-01-21T06:23:36.795Z,14.80
2023-01-21T06:26:15.214Z,14.90
2023-01-21T06:28:51.989Z,14.80
2023-01-21T06:31:25.441Z,14.80
2023-01-21T06:33:52.741Z,14.80
2023-01-21T06:36:25.628Z,14.80
2023-01-21T06:39:05.168Z,14.80
2023-01-21T06:41:50.650Z,14.80
2023-01-21T06:44:27.020Z,14.80
2023-01-21T06:47:01.060Z,14.80
2023-01-21T06:49:37.601Z,14.80
2023-01-21T06:52:48.216Z,14.90
2023-01-21T06:55:33.447Z,14.70
2023-01-21T06:58:00.741Z,14.80
2023-01-21T07:00:28.059Z,14.80
2023-01-21T07:03:08.415Z,14.70
2023-01-21T07:05:55.748Z,14.60
2023-01-21T07:08:29.041Z,14.70
2023-01-21T07:11:13.904Z,14.70
2023-01-21T07:13:43.924Z,14.80
2023-01-21T07:16:20.116Z,14.70
2023-01-21T07:18:47.453Z,14.70
2023-01-21T07:21:17.458Z,14.80
2023-01-21T07:23:50.037Z,14.80
2023-01-21T07:26:19.957Z,14.80
2023-01-21T07:28:50.278Z,14.80
2023-01-21T07:31:26.680Z,14.80
2023-01-21T07:34:02.909Z,14.90
2023-01-21T07:36:30.161Z,14.80
2023-01-21T07:39:00.692Z,14.80
2023-01-21T07:41:28.357Z,14.80
2023-01-21T07:44:15.196Z,14.70
2023-01-21T07:46:42.607Z,14.80
2023-01-21T07:49:17.319Z,14.70
2023-01-21T07:51:45.230Z,14.80
2023-01-21T07:54:18.848Z,14.70
2023-01-21T07:56:45.780Z,14.70
2023-01-21T07:59:13.755Z,14.80
2023-01-21T08:01:41.326Z,14.60
2023-01-21T08:04:17.397Z,14.70
2023-01-21T08:06:44.616Z,14.60
2023-01-21T08:09:26.822Z,14.70
2023-01-21T08:11:54.081Z,14.60
2023-01-21T08:14:21.532Z,14.60
2023-01-21T08:16:49.623Z,14.70
2023-01-21T08:19:17.072Z,14.60
2023-01-21T08:21:47.148Z,14.60
2023-01-21T08:24:29.594Z,14.70
2023-01-21T08:27:00.231Z,14.70
2023-01-21T08:29:27.947Z,14.60
2023-01-21T08:32:17.778Z,14.60
2023-01-21T08:34:45.026Z,14.70
2023-01-21T08:37:12.397Z,14.60
2023-01-21T08:39:39.639Z,14.70
2023-01-21T08:42:06.489Z,14.60
2023-01-21T08:44:35.596Z,14.70
2023-01-21T08:47:03.241Z,14.70
2023-01-21T08:49:30.501Z,14.70
2023-01-21T08:52:10.654Z,14.80
2023-01-21T08:54:37.801Z,14.90
2023-01-21T08:57:04.957Z,14.90
2023-01-21T08:59:40.815Z,14.90
2023-01-21T09:02:08.741Z,14.80
2023-01-21T09:04:39.002Z,15.00
2023-01-21T09:07:06.163Z,14.90
2023-01-21T09:09:48.889Z,14.90
2023-01-21T09:12:22.357Z,14.80
2023-01-21T09:14:49.870Z,14.90
2023-01-21T09:17:16.980Z,14.90
2023-01-21T09:19:50.697Z,14.80
2023-01-21T09:22:18.959Z,14.90
2023-01-21T09:24:52.461Z,14.90
2023-01-21T09:27:21.147Z,14.90
2023-01-21T09:29:48.195Z,14.90
2023-01-21T09:32:33.677Z,14.80
2023-01-21T09:35:01.341Z,14.80
2023-01-21T09:37:28.674Z,14.80
2023-01-21T09:39:59.843Z,14.80
2023-01-21T09:42:32.011Z,14.80
2023-01-21T09:45:00.284Z,14.80
2023-01-21T09:47:33.072Z,14.80
2023-01-21T09:50:03.497Z,14.80
2023-01-21T09:52:54.884Z,14.80
2023-01-21T09:56:09.442Z,14.90
2023-01-21T09:58:42.645Z,14.80
2023-01-21T10:01:23.884Z,14.80
2023-01-21T10:03:55.816Z,14.80
2023-01-21T10:06:43.238Z,14.90
2023-01-21T10:12:49.229Z,14.80
2023-01-21T10:15:42.478Z,14.80
2023-01-21T10:18:34.878Z,14.80
2023-01-21T10:21:06.014Z,14.80
2023-01-21T10:23:58.046Z,14.80
2023-01-21T10:26:27.208Z,14.80
2023-01-21T10:28:57.334Z,14.80
2023-01-21T10:31:38.861Z,14.80
2023-01-21T10:34:39.089Z,14.90
2023-01-21T10:37:24.945Z,15.00
2023-01-21T10:40:14.614Z,14.90
2023-01-21T10:43:09.527Z,14.90
2023-01-21T10:46:21.124Z,14.90
2023-01-21T10:48:55.636Z,15.00
2023-01-21T10:51:48.802Z,14.90
2023-01-21T10:54:57.113Z,14.90
2023-01-21T10:57:45.257Z,14.80
2023-01-21T11:00:18.452Z,14.80
2023-01-21T11:02:59.218Z,14.80
2023-01-21T11:05:27.004Z,15.00
2023-01-21T11:07:55.959Z,14.80
2023-01-21T11:10:25.285Z,14.80
2023-01-21T11:12:56.223Z,14.80
2023-01-21T11:15:24.619Z,14.80
2023-01-21T11:18:00.081Z,14.80
2023-01-21T11:20:40.108Z,14.80
2023-01-21T11:23:23.025Z,14.90
2023-01-21T11:25:50.627Z,15.00
2023-01-21T11:28:58.933Z,15.10
2023-01-21T11:31:33.050Z,15.10
2023-01-21T11:34:22.528Z,15.10
2023-01-21T11:37:02.199Z,15.20
2023-01-21T11:39:30.307Z,15.30
2023-01-21T11:42:16.930Z,15.40
2023-01-21T11:44:53.905Z,15.60
2023-01-21T11:47:44.289Z,15.40
2023-01-21T11:53:18.030Z,15.40
2023-01-21T11:56:06.460Z,15.50
2023-01-21T11:58:49.185Z,15.50
2023-01-21T12:01:22.091Z,15.50
2023-01-21T12:03:59.168Z,15.50
2023-01-21T12:09:18.214Z,15.50
2023-01-21T12:12:11.886Z,15.50
2023-01-21T12:18:16.538Z,15.50
2023-01-21T12:20:43.855Z,15.60
2023-01-21T12:23:26.198Z,15.60
2023-01-21T12:26:01.747Z,15.50
2023-01-21T12:28:43.232Z,15.50
2023-01-21T12:31:49.767Z,15.20
2023-01-21T12:35:20.697Z,15.50
2023-01-21T12:38:03.360Z,15.60
2023-01-21T12:40:31.028Z,15.70
2023-01-21T12:43:10.666Z,15.70
2023-01-21T12:45:45.289Z,15.60
2023-01-21T12:48:16.326Z,15.50
2023-01-21T12:50:47.118Z,15.70
2023-01-21T12:53:28.153Z,15.50
2023-01-21T12:56:21.503Z,15.40
2023-01-21T12:58:57.251Z,15.60
2023-01-21T13:01:46.456Z,15.30
2023-01-21T13:04:59.369Z,15.40
2023-01-21T13:07:27.009Z,15.40
2023-01-21T13:10:00.019Z,15.40
2023-01-21T13:15:34.337Z,15.20
2023-01-21T13:18:03.534Z,15.20
2023-01-21T13:20:33.878Z,15.00
2023-01-21T13:23:10.943Z,15.20
2023-01-21T13:26:23.279Z,15.10
2023-01-21T13:29:14.969Z,15.20
2023-01-21T13:32:09.895Z,15.10
2023-01-21T13:34:42.448Z,15.00
2023-01-21T13:37:15.844Z,15.20
2023-01-21T13:40:01.761Z,15.10
2023-01-21T13:42:29.299Z,15.10
2023-01-21T13:44:56.771Z,15.10
2023-01-21T13:47:35.988Z,15.10
2023-01-21T13:50:17.960Z,15.10
2023-01-21T13:52:51.496Z,15.00
2023-01-21T13:55:40.779Z,15.10
2023-01-21T13:58:15.487Z,15.10
2023-01-21T14:00:47.277Z,15.00
2023-01-21T14:03:14.604Z,15.10
2023-01-21T14:09:03.409Z,15.20
2023-01-21T14:11:40.052Z,15.10
2023-01-21T14:14:21.740Z,15.20
2023-01-21T14:17:10.796Z,15.10
2023-01-21T14:19:43.682Z,15.10
2023-01-21T14:22:29.571Z,15.10
2023-01-21T14:25:02.771Z,15.00
2023-01-21T14:27:35.369Z,15.00
2023-01-21T14:30:17.743Z,15.10
2023-01-21T14:33:44.720Z,15.00
2023-01-21T14:36:16.546Z,15.00
2023-01-21T14:39:07.991Z,15.10
2023-01-21T14:41:53.783Z,15.10
2023-01-21T14:48:23.218Z,15.10
2023-01-21T14:51:10.392Z,15.10
2023-01-21T14:53:51.882Z,15.10
2023-01-21T14:56:37.880Z,15.10
2023-01-21T14:59:23.408Z,15.20
2023-01-21T15:02:05.862Z,15.10
2023-01-21T15:07:33.318Z,15.10
2023-01-21T15:10:32.362Z,15.00
2023-01-21T15:13:01.197Z,15.20
2023-01-21T15:15:37.078Z,15.00
2023-01-21T15:18:22.972Z,15.00
2023-01-21T15:20:57.893Z,15.00
2023-01-21T15:23:28.003Z,15.10
2023-01-21T15:26:11.260Z,15.00
2023-01-21T15:28:44.238Z,15.00
2023-01-21T15:31:34.053Z,14.90
2023-01-21T15:34:02.344Z,15.00
2023-01-21T15:36:38.149Z,14.90
2023-01-21T15:39:11.119Z,15.10
2023-01-21T15:41:56.726Z,14.90
2023-01-21T15:44:37.406Z,14.90
2023-01-21T15:47:12.240Z,14.90
2023-01-21T15:49:38.968Z,14.80
2023-01-21T15:52:24.397Z,14.80
2023-01-21T15:55:05.754Z,14.80
2023-01-21T15:57:44.956Z,14.80
2023-01-21T16:00:14.421Z,14.80
2023-01-21T16:02:50.684Z,14.80
2023-01-21T16:05:26.389Z,14.80
2023-01-21T16:07:58.127Z,14.90
2023-01-21T16:10:42.394Z,14.80
2023-01-21T16:13:30.801Z,14.80
2023-01-21T16:16:12.461Z,14.90
2023-01-21T16:18:46.574Z,14.90
2023-01-21T16:21:15.745Z,14.90
2023-01-21T16:23:43.231Z,14.90
2023-01-21T16:26:22.794Z,14.90
2023-01-21T16:28:49.824Z,14.90
2023-01-21T16:31:18.674Z,15.00
2023-01-21T16:33:47.613Z,14.90
2023-01-21T16:36:17.743Z,14.90
2023-01-21T16:38:44.975Z,15.00
2023-01-21T16:41:14.364Z,14.90
2023-01-21T16:43:52.688Z,14.90
2023-01-21T16:46:28.288Z,14.80
2023-01-21T16:49:00.227Z,14.90
2023-01-21T16:51:29.557Z,14.90
2023-01-21T16:54:15.137Z,15.00
2023-01-21T16:57:08.133Z,15.00
2023-01-21T16:59:50.809Z,15.00
2023-01-21T17:02:23.360Z,15.10
2023-01-21T17:04:50.261Z,15.00
2023-01-21T17:07:22.196Z,15.00
2023-01-21T17:09:59.252Z,14.90
2023-01-21T17:12:29.561Z,15.00
2023-01-21T17:14:58.179Z,15.00
2023-01-21T17:17:29.675Z,14.90
2023-01-21T17:19:57.492Z,15.00
2023-01-21T17:22:29.079Z,15.00
2023-01-21T17:25:18.979Z,15.00
2023-01-21T17:27:47.062Z,15.00
2023-01-21T17:30:17.917Z,15.00
2023-01-21T17:32:54.491Z,15.00
2023-01-21T17:35:25.136Z,15.00
2023-01-21T17:38:03.814Z,15.00
2023-01-21T17:40:46.649Z,14.90
2023-01-21T17:43:26.143Z,15.00
2023-01-21T17:46:02.858Z,14.90
2023-01-21T17:48:29.682Z,15.00
2023-01-21T17:51:03.837Z,15.10
2023-01-21T17:53:36.302Z,14.90
2023-01-21T17:56:07.173Z,15.00
2023-01-21T17:58:43.221Z,14.90
2023-01-21T18:01:10.535Z,14.90
2023-01-21T18:03:37.235Z,14.90
2023-01-21T18:06:05.030Z,15.10
2023-01-21T18:08:34.625Z,15.10
2023-01-21T18:11:01.288Z,14.90
2023-01-21T18:13:27.881Z,14.90
2023-01-21T18:15:58.839Z,14.90
2023-01-21T18:18:27.189Z,14.90
2023-01-21T18:20:54.116Z,14.90
2023-01-21T18:23:21.330Z,14.90
2023-01-21T18:25:54.301Z,14.90
2023-01-21T18:28:24.909Z,14.90
2023-01-21T18:30:54.535Z,14.90
2023-01-21T18:33:21.812Z,15.10
2023-01-21T18:35:49.646Z,14.90
2023-01-21T18:38:23.361Z,14.90
2023-01-21T18:40:49.974Z,14.90
2023-01-21T18:43:17.723Z,14.90
2023-01-21T18:45:44.395Z,14.90
2023-01-21T18:48:16.020Z,14.90
2023-01-21T18:50:48.791Z,14.90
2023-01-21T18:53:15.382Z,15.00
2023-01-21T18:55:44.145Z,15.10
2023-01-21T18:58:14.511Z,14.90
2023-01-21T19:00:43.861Z,14.90
2023-01-21T19:03:15.719Z,14.90
2023-01-21T19:05:43.443Z,14.90
2023-01-21T19:08:15.816Z,14.80
2023-01-21T19:10:49.728Z,14.80
2023-01-21T19:13:16.733Z,14.90
2023-01-21T19:15:43.836Z,14.90
2023-01-21T19:18:15.096Z,15.00
2023-01-21T19:20:47.544Z,15.10
2023-01-21T19:26:03.054Z,15.10
2023-01-21T19:28:29.936Z,15.10
2023-01-21T19:30:58.260Z,15.10
2023-01-21T19:33:33.029Z,15.10
2023-01-21T19:36:05.216Z,15.10
2023-01-21T19:38:31.998Z,15.10
2023-01-21T19:41:02.828Z,15.10
2023-01-21T19:43:37.565Z,15.10
2023-01-21T19:46:09.600Z,15.10
2023-01-21T19:48:36.492Z,15.10
2023-01-21T19:51:03.292Z,15.00
2023-01-21T19:53:29.907Z,15.10
2023-01-21T19:55:56.978Z,15.10
2023-01-21T19:58:27.698Z,14.90
2023-01-21T20:00:54.660Z,15.00
2023-01-21T20:03:22.681Z,15.20
2023-01-21T20:05:53.450Z,15.10
2023-01-21T20:08:21.773Z,15.00
2023-01-21T20:10:55.920Z,15.10
2023-01-21T20:13:22.738Z,14.80
2023-01-21T20:15:50.971Z,15.10
2023-01-21T20:18:23.100Z,15.00
2023-01-21T20:20:50.179Z,15.10
2023-01-21T20:23:17.994Z,15.10
2023-01-21T20:25:47.946Z,15.00
2023-01-21T20:28:21.259Z,15.00
2023-01-21T20:30:53.381Z,15.00
2023-01-21T20:33:23.669Z,15.00
2023-01-21T20:35:51.516Z,15.00
2023-01-21T20:38:22.726Z,15.00
2023-01-21T20:40:52.355Z,15.00
2023-01-21T20:43:21.776Z,15.00
2023-01-21T20:45:56.584Z,15.00
2023-01-21T20:48:25.815Z,15.00
2023-01-21T20:51:00.395Z,15.10
2023-01-21T20:53:29.679Z,15.30
2023-01-21T20:56:00.246Z,15.10
2023-01-21T20:58:28.142Z,15.40
2023-01-21T21:01:03.442Z,15.00
2023-01-21T21:03:33.135Z,15.00
2023-01-21T21:06:02.432Z,15.00
2023-01-21T21:08:29.221Z,15.10
2023-01-21T21:11:02.431Z,15.00
2023-01-21T21:13:35.111Z,15.00
2023-01-21T21:16:11.237Z,15.10
2023-01-21T21:18:44.911Z,15.00
2023-01-21T21:21:12.415Z,15.00
2023-01-21T21:23:41.560Z,15.00
2023-01-21T21:26:21.427Z,15.00
2023-01-21T21:28:51.118Z,15.00
2023-01-21T21:31:21.055Z,14.90
2023-01-21T21:33:50.663Z,15.00
2023-01-21T21:36:18.496Z,15.00
2023-01-21T21:38:45.566Z,14.90
2023-01-21T21:41:35.241Z,14.90
2023-01-21T21:44:01.989Z,14.90
2023-01-21T21:46:47.513Z,14.90
2023-01-21T21:49:14.280Z,14.90
2023-01-21T21:51:45.693Z,14.90
2023-01-21T21:54:15.986Z,14.90
2023-01-21T21:56:47.710Z,14.90
2023-01-21T21:59:16.731Z,14.90
2023-01-21T22:01:49.259Z,14.80
2023-01-21T22:04:15.849Z,15.10
2023-01-21T22:06:42.550Z,15.00
2023-01-21T22:09:16.285Z,15.10
2023-01-21T22:11:48.759Z,14.90
2023-01-21T22:14:18.157Z,14.90
2023-01-21T22:16:45.138Z,14.90
2023-01-21T22:19:12.046Z,15.00
2023-01-21T22:21:44.233Z,15.00
2023-01-21T22:24:14.991Z,15.00
2023-01-21T22:26:42.804Z,15.00
2023-01-21T22:29:09.462Z,15.10
2023-01-21T22:31:38.929Z,14.90
2023-01-21T22:34:09.081Z,14.80
2023-01-21T22:36:35.814Z,14.90
2023-01-21T22:39:14.863Z,14.90
2023-01-21T22:41:45.516Z,14.90
2023-01-21T22:44:15.339Z,14.90
2023-01-21T22:46:42.159Z,15.00
2023-01-21T22:49:12.150Z,15.00
2023-01-21T22:51:44.450Z,14.90
2023-01-21T22:54:11.342Z,15.00
2023-01-21T22:56:51.568Z,14.90
2023-01-21T22:59:24.335Z,14.90
2023-01-21T23:01:51.207Z,15.00
2023-01-21T23:04:21.309Z,14.90
2023-01-21T23:06:49.869Z,14.90
2023-01-21T23:09:16.613Z,15.00
2023-01-21T23:11:44.945Z,15.00
2023-01-21T23:14:14.795Z,15.00
2023-01-21T23:16:48.904Z,14.90
2023-01-21T23:19:15.625Z,15.00
2023-01-21T23:21:42.299Z,14.90
2023-01-21T23:24:09.206Z,14.90
2023-01-21T23:26:36.073Z,15.10
2023-01-21T23:29:08.358Z,14.90
2023-01-21T23:31:35.414Z,15.00
2023-01-21T23:34:03.408Z,14.90
2023-01-21T23:36:34.611Z,15.00
2023-01-21T23:39:03.873Z,14.80
2023-01-21T23:41:30.672Z,14.90
2023-01-21T23:44:10.597Z,15.10
2023-01-21T23:46:43.298Z,15.10
2023-01-21T23:49:09.964Z,15.30
2023-01-21T23:51:36.565Z,15.20
2023-01-21T23:54:06.171Z,15.30
2023-01-21T23:56:32.909Z,15.40
2023-01-21T23:58:59.560Z,15.30
